createdAt,value
2022-12-07T00:01:34.439Z,73.80
2022-12-07T00:04:07.073Z,74.60
2022-12-07T00:06:35.988Z,74.00
2022-12-07T00:09:04.064Z,73.70
2022-12-07T00:11:30.838Z,73.60
2022-12-07T00:13:59.916Z,73.10
2022-12-07T00:16:29.154Z,74.40
2022-12-07T00:18:56.324Z,74.30
2022-12-07T00:21:32.082Z,73.50
2022-12-07T00:24:00.022Z,74.20
2022-12-07T00:26:29.985Z,74.00
2022-12-07T00:29:03.597Z,75.00
2022-12-07T00:31:36.128Z,75.10
2022-12-07T00:34:03.000Z,75.40
2022-12-07T00:36:29.742Z,73.80
2022-12-07T00:38:59.248Z,73.90
2022-12-07T00:41:30.084Z,75.30
2022-12-07T00:43:57.327Z,74.70
2022-12-07T00:46:25.281Z,73.80
2022-12-07T00:48:53.376Z,74.60
2022-12-07T00:51:22.904Z,74.60
2022-12-07T00:53:50.043Z,74.90
2022-12-07T00:56:19.695Z,73.70
2022-12-07T00:58:54.778Z,74.80
2022-12-07T01:01:21.785Z,75.50
2022-12-07T01:03:48.887Z,74.00
2022-12-07T01:06:17.496Z,74.80
2022-12-07T01:08:44.979Z,75.10
2022-12-07T01:11:15.431Z,74.70
2022-12-07T01:13:42.603Z,75.60
2022-12-07T01:16:11.864Z,74.40
2022-12-07T01:18:39.507Z,75.30
2022-12-07T01:21:08.892Z,74.10
2022-12-07T01:23:36.349Z,75.10
2022-12-07T01:26:05.606Z,74.30
2022-12-07T01:28:32.795Z,74.80
2022-12-07T01:31:12.584Z,73.70
2022-12-07T01:33:40.433Z,74.20
2022-12-07T01:36:18.984Z,74.40
2022-12-07T01:38:47.002Z,74.60
2022-12-07T01:41:14.990Z,74.00
2022-12-07T01:44:26.746Z,74.00
2022-12-07T01:47:11.297Z,75.40
2022-12-07T01:49:39.654Z,75.60
2022-12-07T01:52:28.982Z,73.30
2022-12-07T01:55:04.813Z,75.30
2022-12-07T01:57:34.211Z,75.30
2022-12-07T02:00:02.514Z,75.10
2022-12-07T02:02:50.959Z,74.90
2022-12-07T02:05:18.120Z,75.20
2022-12-07T02:07:47.440Z,75.00
2022-12-07T02:10:20.235Z,75.00
2022-12-07T02:12:52.604Z,75.90
2022-12-07T02:15:22.009Z,75.30
2022-12-07T02:17:52.433Z,75.30
2022-12-07T02:20:33.158Z,75.50
2022-12-07T02:23:17.672Z,75.80
2022-12-07T02:25:59.413Z,75.60
2022-12-07T02:29:02.307Z,75.30
2022-12-07T02:31:31.797Z,75.50
2022-12-07T02:34:33.222Z,74.70
2022-12-07T02:37:12.101Z,75.60
2022-12-07T02:39:47.133Z,75.60
2022-12-07T02:42:18.830Z,75.60
2022-12-07T02:44:47.335Z,75.50
2022-12-07T02:47:17.526Z,74.60
2022-12-07T02:49:44.648Z,75.00
2022-12-07T02:52:11.533Z,73.60
2022-12-07T02:54:38.312Z,73.40
2022-12-07T02:57:16.715Z,73.20
2022-12-07T03:00:12.145Z,74.40
2022-12-07T03:03:00.449Z,74.60
2022-12-07T03:05:39.178Z,75.20
2022-12-07T03:08:31.678Z,72.30
2022-12-07T03:11:11.387Z,74.70
2022-12-07T03:13:55.318Z,74.10
2022-12-07T03:16:28.074Z,74.80
2022-12-07T03:19:06.847Z,74.80
2022-12-07T03:21:40.554Z,74.60
2022-12-07T03:24:12.195Z,74.40
2022-12-07T03:26:45.851Z,74.60
2022-12-07T03:29:25.967Z,74.80
2022-12-07T03:31:59.910Z,75.30
2022-12-07T03:34:39.071Z,74.90
2022-12-07T03:37:27.420Z,74.50
2022-12-07T03:40:09.175Z,75.00
2022-12-07T03:42:36.254Z,75.40
2022-12-07T03:45:04.182Z,73.80
2022-12-07T03:47:53.828Z,74.30
2022-12-07T03:50:32.860Z,75.50
2022-12-07T03:53:21.874Z,75.70
2022-12-07T03:55:50.074Z,76.10
2022-12-07T03:58:21.439Z,74.80
2022-12-07T04:00:49.506Z,74.90
2022-12-07T04:03:16.236Z,73.50
2022-12-07T04:05:44.004Z,73.30
2022-12-07T04:08:11.016Z,74.10
2022-12-07T04:10:37.994Z,73.30
2022-12-07T04:13:04.862Z,73.80
2022-12-07T04:15:31.607Z,73.50
2022-12-07T04:17:58.347Z,73.50
2022-12-07T04:20:25.249Z,73.30
2022-12-07T04:22:52.023Z,73.20
2022-12-07T04:25:18.764Z,73.10
2022-12-07T04:27:45.460Z,73.00
2022-12-07T04:30:12.431Z,73.10
2022-12-07T04:32:39.116Z,73.30
2022-12-07T04:35:06.416Z,73.10
2022-12-07T04:37:33.539Z,73.40
2022-12-07T04:40:00.811Z,73.70
2022-12-07T04:42:29.196Z,73.30
2022-12-07T04:44:56.033Z,74.30
2022-12-07T04:47:22.771Z,73.10
2022-12-07T04:49:49.515Z,73.10
2022-12-07T04:52:16.217Z,73.00
2022-12-07T04:54:42.912Z,73.00
2022-12-07T04:57:09.670Z,73.00
2022-12-07T04:59:38.834Z,72.90
2022-12-07T05:02:09.104Z,72.90
2022-12-07T05:04:35.817Z,72.80
2022-12-07T05:07:02.544Z,72.90
2022-12-07T05:09:29.268Z,72.70
2022-12-07T05:11:55.993Z,72.80
2022-12-07T05:14:22.740Z,72.90
2022-12-07T05:16:51.463Z,72.90
2022-12-07T05:19:19.778Z,74.10
2022-12-07T05:21:46.817Z,73.90
2022-12-07T05:24:15.524Z,73.00
2022-12-07T05:26:42.790Z,74.30
2022-12-07T05:29:15.424Z,73.30
2022-12-07T05:31:42.506Z,74.10
2022-12-07T05:34:10.089Z,72.90
2022-12-07T05:36:37.128Z,73.40
2022-12-07T05:39:04.184Z,74.20
2022-12-07T05:41:49.421Z,73.00
2022-12-07T05:44:16.281Z,72.60
2022-12-07T05:46:43.198Z,72.90
2022-12-07T05:49:09.915Z,73.00
2022-12-07T05:51:36.652Z,72.80
2022-12-07T05:54:03.503Z,72.70
2022-12-07T05:56:30.270Z,72.80
2022-12-07T05:59:15.808Z,72.70
2022-12-07T06:01:42.633Z,72.50
2022-12-07T06:04:09.517Z,72.80
2022-12-07T06:06:36.262Z,73.00
2022-12-07T06:09:03.831Z,72.80
2022-12-07T06:11:49.316Z,73.10
2022-12-07T06:14:16.013Z,71.80
2022-12-07T06:16:42.891Z,72.60
2022-12-07T06:19:09.965Z,72.50
2022-12-07T06:21:36.716Z,72.70
2022-12-07T06:24:03.903Z,72.60
2022-12-07T06:26:30.719Z,72.70
2022-12-07T06:28:57.460Z,72.50
2022-12-07T06:31:24.380Z,72.60
2022-12-07T06:33:51.167Z,72.80
2022-12-07T06:36:21.389Z,72.50
2022-12-07T06:38:50.805Z,72.30
2022-12-07T06:41:17.506Z,73.10
2022-12-07T06:43:44.237Z,72.10
2022-12-07T06:46:11.148Z,72.00
2022-12-07T06:48:37.984Z,72.10
2022-12-07T06:51:04.911Z,72.10
2022-12-07T06:53:31.726Z,72.30
2022-12-07T06:55:58.673Z,72.20
2022-12-07T06:58:25.496Z,72.00
2022-12-07T07:00:52.491Z,72.10
2022-12-07T07:03:19.375Z,72.10
2022-12-07T07:05:46.329Z,72.20
2022-12-07T07:08:22.606Z,72.40
2022-12-07T07:10:49.966Z,73.10
2022-12-07T07:13:16.666Z,72.30
2022-12-07T07:15:43.611Z,72.10
2022-12-07T07:18:10.487Z,72.70
2022-12-07T07:20:37.717Z,72.60
2022-12-07T07:23:04.469Z,73.10
2022-12-07T07:25:31.271Z,72.60
2022-12-07T07:27:58.287Z,72.70
2022-12-07T07:30:25.468Z,72.40
2022-12-07T07:32:52.370Z,72.80
2022-12-07T07:35:19.244Z,72.80
2022-12-07T07:37:45.973Z,72.70
2022-12-07T07:40:13.009Z,72.80
2022-12-07T07:42:40.025Z,73.00
2022-12-07T07:45:07.455Z,72.70
2022-12-07T07:47:34.142Z,73.20
2022-12-07T07:50:01.131Z,72.90
2022-12-07T07:52:28.277Z,72.80
2022-12-07T07:54:54.987Z,73.00
2022-12-07T07:57:21.766Z,72.80
2022-12-07T07:59:48.577Z,72.90
2022-12-07T08:02:17.582Z,72.90
2022-12-07T08:04:45.071Z,74.20
2022-12-07T08:07:12.590Z,73.30
2022-12-07T08:09:39.712Z,73.40
2022-12-07T08:12:06.640Z,74.10
2022-12-07T08:14:34.239Z,73.00
2022-12-07T08:17:01.088Z,73.30
2022-12-07T08:19:27.904Z,72.70
2022-12-07T08:21:56.324Z,72.50
2022-12-07T08:24:23.559Z,72.70
2022-12-07T08:26:51.261Z,73.00
2022-12-07T08:29:18.240Z,72.80
2022-12-07T08:31:45.110Z,73.00
2022-12-07T08:34:12.723Z,72.50
2022-12-07T08:36:39.690Z,72.70
2022-12-07T08:41:53.776Z,72.60
2022-12-07T08:44:20.517Z,71.80
2022-12-07T08:47:01.652Z,72.00
2022-12-07T08:49:34.518Z,73.40
2022-12-07T08:52:02.301Z,73.40
2022-12-07T08:54:29.696Z,71.40
2022-12-07T08:56:59.443Z,71.90
2022-12-07T08:59:28.115Z,71.20
2022-12-07T09:01:55.194Z,71.90
2022-12-07T09:04:22.062Z,70.80
2022-12-07T09:06:50.168Z,70.80
2022-12-07T09:09:17.021Z,70.90
2022-12-07T09:11:46.187Z,70.60
2022-12-07T09:14:13.467Z,70.90
2022-12-07T09:16:40.704Z,70.80
2022-12-07T09:19:09.179Z,71.10
2022-12-07T09:21:35.928Z,72.20
2022-12-07T09:24:02.743Z,71.00
2022-12-07T09:26:29.486Z,71.10
2022-12-07T09:28:56.217Z,70.90
2022-12-07T09:31:24.725Z,70.90
2022-12-07T09:34:00.937Z,70.80
2022-12-07T09:36:29.164Z,72.70
2022-12-07T09:38:56.308Z,70.90
2022-12-07T09:41:25.115Z,70.30
2022-12-07T09:43:53.001Z,71.20
2022-12-07T09:46:21.761Z,70.80
2022-12-07T09:48:50.733Z,71.30
2022-12-07T09:51:24.895Z,71.00
2022-12-07T09:53:58.224Z,70.50
2022-12-07T09:56:25.426Z,71.50
2022-12-07T09:59:03.407Z,70.00
2022-12-07T10:01:32.989Z,71.20
2022-12-07T10:04:23.489Z,71.10
2022-12-07T10:06:52.184Z,71.30
2022-12-07T10:09:22.867Z,69.70
2022-12-07T10:12:05.019Z,71.50
2022-12-07T10:15:05.633Z,71.60
2022-12-07T10:17:33.404Z,70.90
2022-12-07T10:20:15.532Z,72.00
2022-12-07T10:23:05.673Z,72.00
2022-12-07T10:25:37.577Z,71.90
2022-12-07T10:28:14.883Z,71.00
2022-12-07T10:30:48.887Z,70.30
2022-12-07T10:33:37.953Z,70.30
2022-12-07T10:36:21.295Z,70.30
2022-12-07T10:38:54.245Z,69.90
2022-12-07T10:41:21.169Z,68.90
2022-12-07T10:43:50.092Z,68.00
2022-12-07T10:46:37.654Z,69.40
2022-12-07T10:49:29.948Z,70.20
2022-12-07T10:52:31.533Z,70.00
2022-12-07T10:55:27.255Z,70.60
2022-12-07T10:58:00.997Z,69.40
2022-12-07T11:00:51.919Z,69.20
2022-12-07T11:03:39.775Z,68.80
2022-12-07T11:06:15.336Z,69.90
2022-12-07T11:09:07.592Z,68.50
2022-12-07T11:11:52.165Z,68.70
2022-12-07T11:14:59.547Z,68.60
2022-12-07T11:17:52.702Z,68.00
2022-12-07T11:20:50.550Z,67.30
2022-12-07T11:23:29.191Z,67.40
2022-12-07T11:26:06.890Z,67.10
2022-12-07T11:29:03.866Z,66.60
2022-12-07T11:31:35.500Z,67.90
2022-12-07T11:34:43.149Z,66.50
2022-12-07T11:37:15.659Z,68.60
2022-12-07T11:39:55.202Z,68.80
2022-12-07T11:42:34.197Z,69.80
2022-12-07T11:45:24.440Z,69.80
2022-12-07T11:48:06.485Z,70.00
2022-12-07T11:50:39.956Z,69.00
2022-12-07T11:53:09.686Z,69.20
2022-12-07T11:55:54.067Z,69.30
2022-12-07T11:58:30.135Z,70.10
2022-12-07T12:01:29.087Z,66.30
2022-12-07T12:04:11.049Z,68.50
2022-12-07T12:06:39.195Z,69.00
2022-12-07T12:09:41.908Z,67.20
2022-12-07T12:15:28.904Z,67.90
2022-12-07T12:18:32.829Z,66.20
2022-12-07T12:21:07.481Z,68.10
2022-12-07T12:23:51.852Z,67.60
2022-12-07T12:26:24.065Z,67.10
2022-12-07T12:29:00.935Z,67.00
2022-12-07T12:31:40.727Z,66.80
2022-12-07T12:34:33.857Z,67.00
2022-12-07T12:37:00.789Z,66.60
2022-12-07T12:39:27.920Z,64.60
2022-12-07T12:41:56.986Z,64.60
2022-12-07T12:44:23.686Z,65.10
2022-12-07T12:47:05.760Z,63.40
2022-12-07T12:50:13.376Z,64.70
2022-12-07T12:52:40.075Z,64.50
2022-12-07T12:55:10.825Z,62.10
2022-12-07T12:57:38.335Z,63.70
2022-12-07T13:00:23.169Z,62.20
2022-12-07T13:02:55.798Z,64.50
2022-12-07T13:05:30.792Z,64.40
2022-12-07T13:07:59.217Z,63.40
2022-12-07T13:10:31.437Z,63.60
2022-12-07T13:13:16.329Z,65.40
2022-12-07T13:15:46.951Z,66.10
2022-12-07T13:18:46.151Z,66.20
2022-12-07T13:21:12.795Z,67.10
2022-12-07T13:23:45.571Z,64.90
2022-12-07T13:26:30.768Z,67.30
2022-12-07T13:29:14.245Z,67.90
2022-12-07T13:31:59.771Z,68.30
2022-12-07T13:34:38.451Z,66.70
2022-12-07T13:37:38.436Z,67.70
2022-12-07T13:40:24.379Z,68.30
2022-12-07T13:43:03.108Z,68.50
2022-12-07T13:45:49.565Z,68.00
2022-12-07T13:48:34.772Z,67.00
2022-12-07T13:51:03.774Z,68.30
2022-12-07T13:53:31.583Z,67.70
2022-12-07T13:56:00.829Z,67.00
2022-12-07T13:58:31.535Z,67.90
2022-12-07T14:00:59.129Z,67.60
2022-12-07T14:03:37.261Z,67.40
2022-12-07T14:06:15.455Z,68.80
2022-12-07T14:08:42.593Z,67.80
2022-12-07T14:11:17.275Z,66.70
2022-12-07T14:14:03.756Z,68.30
2022-12-07T14:16:36.175Z,69.00
2022-12-07T14:19:05.870Z,68.30
2022-12-07T14:21:34.819Z,68.00
2022-12-07T14:24:19.496Z,67.60
2022-12-07T14:26:48.260Z,67.90
2022-12-07T14:29:31.162Z,67.00
2022-12-07T14:32:05.725Z,67.50
2022-12-07T14:34:32.458Z,67.20
2022-12-07T14:36:59.130Z,66.10
2022-12-07T14:39:25.853Z,65.90
2022-12-07T14:41:52.668Z,66.00
2022-12-07T14:44:28.233Z,66.10
2022-12-07T14:49:45.871Z,66.60
2022-12-07T14:55:05.472Z,68.30
2022-12-07T14:57:32.425Z,66.90
2022-12-07T14:59:59.189Z,66.70
2022-12-07T15:02:25.912Z,67.00
2022-12-07T15:04:52.720Z,67.40
2022-12-07T15:07:23.337Z,67.20
2022-12-07T15:09:50.266Z,69.10
2022-12-07T15:12:17.076Z,67.20
2022-12-07T15:14:43.821Z,67.30
2022-12-07T15:17:26.069Z,67.20
2022-12-07T15:19:54.991Z,68.90
2022-12-07T15:22:21.698Z,67.00
2022-12-07T15:24:48.464Z,67.20
2022-12-07T15:27:15.155Z,67.40
2022-12-07T15:29:41.889Z,67.50
2022-12-07T15:32:10.008Z,67.80
2022-12-07T15:34:40.336Z,67.90
2022-12-07T15:37:08.818Z,68.00
2022-12-07T15:39:37.175Z,68.70
2022-12-07T15:42:04.208Z,68.50
2022-12-07T15:44:49.392Z,68.80
2022-12-07T15:47:16.127Z,68.30
2022-12-07T15:49:42.885Z,68.80
2022-12-07T15:52:09.772Z,68.90
2022-12-07T15:54:37.107Z,68.70
2022-12-07T15:57:03.937Z,69.30
2022-12-07T15:59:30.908Z,69.30
2022-12-07T16:01:58.332Z,69.60
2022-12-07T16:04:25.259Z,69.50
2022-12-07T16:06:52.212Z,69.40
2022-12-07T16:09:19.602Z,69.10
2022-12-07T16:11:46.486Z,69.70
2022-12-07T16:14:13.524Z,69.50
2022-12-07T16:16:41.383Z,69.40
2022-12-07T16:19:09.229Z,69.80
2022-12-07T16:21:36.779Z,70.30
2022-12-07T16:24:04.400Z,70.70
2022-12-07T16:26:31.707Z,70.60
2022-12-07T16:28:58.769Z,69.90
2022-12-07T16:31:27.717Z,69.80
2022-12-07T16:33:56.955Z,71.00
2022-12-07T16:36:55.061Z,70.60
2022-12-07T16:39:12.975Z,70.30
2022-12-07T16:41:39.742Z,69.90
2022-12-07T16:44:08.635Z,69.70
2022-12-07T16:46:36.856Z,70.90
2022-12-07T16:49:04.556Z,70.60
2022-12-07T16:51:32.042Z,70.40
2022-12-07T16:53:58.838Z,70.40
2022-12-07T16:56:27.467Z,70.10
2022-12-07T16:58:54.159Z,70.10
2022-12-07T17:01:23.609Z,70.20
2022-12-07T17:03:50.922Z,71.50
2022-12-07T17:06:23.617Z,70.60
2022-12-07T17:08:51.703Z,72.40
2022-12-07T17:11:27.460Z,71.40
2022-12-07T17:14:13.071Z,72.20
2022-12-07T17:16:40.336Z,70.60
2022-12-07T17:19:08.853Z,71.10
2022-12-07T17:21:36.095Z,71.90
2022-12-07T17:24:05.057Z,71.20
2022-12-07T17:26:35.770Z,71.80
2022-12-07T17:29:04.101Z,70.90
2022-12-07T17:31:30.956Z,71.00
2022-12-07T17:33:57.763Z,70.30
2022-12-07T17:36:27.014Z,70.70
2022-12-07T17:38:53.898Z,71.80
2022-12-07T17:41:42.997Z,70.30
2022-12-07T17:44:12.259Z,72.00
2022-12-07T17:46:39.813Z,71.40
2022-12-07T17:49:07.724Z,71.00
2022-12-07T17:51:53.261Z,70.80
2022-12-07T17:54:20.370Z,70.00
2022-12-07T17:56:47.666Z,69.80
2022-12-07T17:59:14.656Z,70.10
2022-12-07T18:01:42.373Z,69.90
2022-12-07T18:04:09.449Z,70.30
2022-12-07T18:06:36.402Z,69.80
2022-12-07T18:09:03.767Z,69.80
2022-12-07T18:11:30.475Z,69.30
2022-12-07T18:13:57.275Z,69.00
2022-12-07T18:16:27.648Z,68.90
2022-12-07T18:18:54.665Z,69.90
2022-12-07T18:21:24.258Z,69.30
2022-12-07T18:23:53.589Z,70.30
2022-12-07T18:26:22.286Z,70.50
2022-12-07T18:28:49.318Z,70.40
2022-12-07T18:31:16.579Z,69.60
2022-12-07T18:33:45.172Z,69.50
2022-12-07T18:36:12.415Z,70.20
2022-12-07T18:38:39.512Z,69.60
2022-12-07T18:41:12.360Z,69.20
2022-12-07T18:43:39.402Z,71.20
2022-12-07T18:46:18.637Z,69.50
2022-12-07T18:48:45.821Z,71.40
2022-12-07T18:51:14.855Z,69.70
2022-12-07T18:53:42.302Z,70.70
2022-12-07T18:56:16.242Z,70.00
2022-12-07T18:59:03.257Z,71.20
2022-12-07T19:01:31.489Z,70.50
2022-12-07T19:03:59.392Z,71.10
2022-12-07T19:06:26.657Z,70.70
2022-12-07T19:08:54.666Z,70.40
2022-12-07T19:11:50.933Z,71.20
2022-12-07T19:14:23.972Z,71.10
2022-12-07T19:16:53.000Z,69.90
2022-12-07T19:19:21.947Z,71.70
2022-12-07T19:21:49.015Z,71.60
2022-12-07T19:24:19.809Z,70.80
2022-12-07T19:26:48.385Z,70.60
2022-12-07T19:29:15.187Z,70.50
2022-12-07T19:31:42.073Z,70.70
2022-12-07T19:34:13.356Z,70.50
2022-12-07T19:36:40.104Z,72.40
2022-12-07T19:39:12.937Z,70.50
2022-12-07T19:41:43.681Z,71.00
2022-12-07T19:44:15.791Z,71.10
2022-12-07T19:46:46.465Z,72.30
2022-12-07T19:49:17.702Z,71.60
2022-12-07T19:51:47.172Z,71.20
2022-12-07T19:54:15.637Z,71.10
2022-12-07T19:56:43.167Z,71.00
2022-12-07T19:59:11.341Z,70.60
2022-12-07T20:01:40.425Z,70.80
2022-12-07T20:04:13.043Z,70.00
2022-12-07T20:06:40.130Z,71.20
2022-12-07T20:09:06.849Z,70.80
2022-12-07T20:11:52.575Z,70.40
2022-12-07T20:14:19.251Z,70.10
2022-12-07T20:16:45.985Z,70.50
2022-12-07T20:19:14.816Z,70.60
2022-12-07T20:21:42.580Z,71.40
2022-12-07T20:24:12.787Z,71.30
2022-12-07T20:26:41.588Z,72.00
2022-12-07T20:29:17.544Z,72.00
2022-12-07T20:31:45.904Z,71.40
2022-12-07T20:34:13.460Z,71.00
2022-12-07T20:36:40.710Z,71.30
2022-12-07T20:39:07.932Z,71.20
2022-12-07T20:41:54.119Z,71.10
2022-12-07T20:44:20.849Z,71.00
2022-12-07T20:46:47.721Z,70.80
2022-12-07T20:49:17.071Z,70.90
2022-12-07T20:51:44.484Z,72.00
2022-12-07T20:54:12.040Z,71.10
2022-12-07T20:56:39.177Z,71.70
2022-12-07T20:59:09.629Z,71.70
2022-12-07T21:01:37.118Z,72.50
2022-12-07T21:04:04.076Z,71.20
2022-12-07T21:06:31.136Z,71.40
2022-12-07T21:09:00.044Z,71.20
2022-12-07T21:11:29.108Z,72.70
2022-12-07T21:13:55.881Z,72.60
2022-12-07T21:16:27.855Z,71.30
2022-12-07T21:18:55.887Z,72.70
2022-12-07T21:21:23.254Z,72.20
2022-12-07T21:24:00.041Z,71.90
2022-12-07T21:26:29.024Z,72.90
2022-12-07T21:28:56.971Z,71.40
2022-12-07T21:31:24.197Z,72.60
2022-12-07T21:33:51.155Z,71.40
2022-12-07T21:36:21.040Z,71.10
2022-12-07T21:38:48.739Z,72.40
2022-12-07T21:41:23.177Z,71.70
2022-12-07T21:43:50.420Z,73.10
2022-12-07T21:46:18.848Z,72.70
2022-12-07T21:49:02.018Z,71.90
2022-12-07T21:51:30.037Z,73.60
2022-12-07T21:53:58.599Z,72.40
2022-12-07T21:56:27.893Z,72.40
2022-12-07T21:58:58.889Z,72.40
2022-12-07T22:01:27.922Z,72.00
2022-12-07T22:03:54.927Z,72.00
2022-12-07T22:06:24.180Z,71.40
2022-12-07T22:08:52.685Z,71.90
2022-12-07T22:11:19.451Z,71.80
2022-12-07T22:14:10.206Z,71.10
2022-12-07T22:16:38.864Z,71.60
2022-12-07T22:19:06.470Z,71.40
2022-12-07T22:21:34.094Z,71.10
2022-12-07T22:24:00.944Z,71.20
2022-12-07T22:26:27.701Z,70.60
2022-12-07T22:28:54.906Z,70.40
2022-12-07T22:31:22.375Z,70.20
2022-12-07T22:33:49.905Z,70.60
2022-12-07T22:36:17.079Z,70.70
2022-12-07T22:38:44.451Z,70.70
2022-12-07T22:41:26.123Z,71.00
2022-12-07T22:43:53.169Z,71.40
2022-12-07T22:46:20.370Z,70.90
2022-12-07T22:48:47.544Z,70.90
2022-12-07T22:51:23.055Z,70.80
2022-12-07T22:53:50.629Z,72.10
2022-12-07T22:56:18.304Z,70.90
2022-12-07T22:58:45.771Z,70.80
2022-12-07T23:01:14.548Z,70.80
2022-12-07T23:03:41.551Z,71.30
2022-12-07T23:06:12.307Z,70.50
2022-12-07T23:08:39.049Z,71.80
2022-12-07T23:11:09.460Z,70.30
2022-12-07T23:13:37.902Z,72.00
2022-12-07T23:16:15.204Z,70.40
2022-12-07T23:18:42.726Z,72.70
2022-12-07T23:21:09.983Z,71.50
2022-12-07T23:23:36.692Z,71.40
2022-12-07T23:26:06.103Z,70.70
2022-12-07T23:28:33.760Z,72.00
2022-12-07T23:31:07.752Z,72.60
2022-12-07T23:33:34.906Z,72.40
2022-12-07T23:36:25.425Z,71.00
2022-12-07T23:38:53.681Z,72.90
2022-12-07T23:41:23.129Z,71.70
2022-12-07T23:43:50.440Z,72.00
2022-12-07T23:46:19.983Z,70.80
2022-12-07T23:48:48.744Z,71.90
2022-12-07T23:51:16.301Z,71.70
2022-12-07T23:53:45.328Z,71.30
2022-12-07T23:56:14.730Z,72.00
2022-12-07T23:58:41.805Z,71.90
